Tiempo atmosférico en la estación meteorológica de A Coruña, A Coruña (58 m.)



Fecha
DESCASC
Temp. máxima en grados centígrados (hora)
DESCASC
Temp. mínima en grados centígrados (hora)
DESCASC
Temp. media en grados centígrados
DESCASC
Racha de viento máxima en m/sg (hora)
DESCASC
Velocidad máxima media en intervalos de 10 minutos(hora)
DESCASC
Precipitaciones diarias en mm
DESCASC
Precipitaciones de 00:00 a 06:00 en mm
DESCASC
Precipitaciones de 06:00 a 12:00 en mm
DESCASC
Precipitaciones de 12:00 a 18:00 en mm
DESCASC
Precipitaciones de 18:00 a 24:00 en mm
DESCASC
13-10-2019 18.6 (02:10) 13.4 (23:50) 16 18.89 (02:30) 8.33 (02:10) 30 4.2 10 5.8 10
12-10-2019 22.3 (15:10) 15.7 (02:00) 19 15.83 (21:20) 7.22 (17:00) 0 0 0 0 0
11-10-2019 19.3 (16:40) 13.8 (06:10) 16.5 9.17 (18:10) 5.28 (18:10) 0 0 0 0 0
10-10-2019 20.2 (14:40) 12.5 (00:00) 16.4 6.39 (16:30) 3.61 (15:30) 0 0 0 0 0
09-10-2019 19.8 (16:20) 14.6 (00:00) 17.2 6.39 (14:50) 3.89 (14:40) 0 0 0 0 0
08-10-2019 20.9 (02:50) 15.2 (00:00) 18 10 (10:00) 5 (09:40) 6.6 0 6.4 0.2 0
07-10-2019 22.3 (13:40) 13.4 (00:00) 17.8 5.28 (23:10) 3.33 (23:40) 0.2 0 0 0 0.2
06-10-2019 19.6 (13:30) 15.6 (00:00) 17.6 5.28 (16:10) 3.89 (16:40) 3.6 3.6 0 0 0
05-10-2019 21.5 (16:10) 13.7 (00:00) 17.6 7.22 (14:10) 5.28 (14:10) 0 0 0 0 0
04-10-2019 19.9 (15:40) 15 (00:00) 17.4 5.28 (01:10) 3.06 (00:20) 0 0 0 0 0
03-10-2019 22 (17:30) 13.4 (00:00) 17.7 9.72 (21:00) 5.28 (21:00) 0.2 0 0 0 0.2
02-10-2019 20.1 (15:00) 15.4 (00:00) 17.8 8.61 (02:20) 4.72 (02:30) 0.2 0.2 0 0 0
01-10-2019 22 (14:10) 16.9 (00:00) 19.4 11.67 (14:40) 6.67 (16:50) 0.2 0.2 0 0 0
30-09-2019 24.8 (16:40) 17.9 (00:00) 21.3 11.67 (15:40) 6.39 (14:30) 0.4 0 0.4 0 0
29-09-2019 21.3 (13:50) 16 (00:00) 18.6 11.94 (04:40) 6.67 (14:20) 2.2 0 1.4 0 0.8
28-09-2019 20.9 (14:40) 12.9 (00:00) 16.9 8.06 (16:10) 5.56 (16:20) 0 0 0 0 0
27-09-2019 21.1 (16:00) 16.1 (00:00) 18.6 9.72 (16:00) 5.83 (16:30) 6.8 2.2 4.6 0 0
26-09-2019 23.6 (14:30) 17 (00:00) 20.3 12.5 (16:30) 7.22 (16:30) 0 0 0 0 0
25-09-2019 21.4 (13:50) 15.9 (00:00) 18.6 10.28 (11:20) 5.83 (11:20) 0.2 0.2 0 0 0
24-09-2019 20.7 (15:40) 16.3 (00:00) 18.5 13.61 (14:20) 7.5 (14:30) 5.8 5 0.6 0 0.2
23-09-2019 19.8 (19:50) 16.8 (00:00) 18.3 18.61 (14:00) 8.33 (14:30) 1 0 0.2 0.8 0
22-09-2019 22.1 (17:10) 16.1 (00:00) 19.1 11.94 (11:10) 7.5 (11:10) 0 0 0 0 0
21-09-2019 21.5 (13:00) 17.1 (00:00) 19.3 15 (13:20) 7.22 (12:50) 0.4 0 0.4 0 0
20-09-2019 20 (16:00) 13.9 (00:00) 16.9 5.28 (21:50) 2.78 (21:50) 1 0 1 0 0
19-09-2019 24.9 (14:10) 14.4 (00:00) 19.6 6.94 (17:10) 4.17 (17:00) 0 0 0 0 0
18-09-2019 25.8 (14:10) 17.7 (00:00) 21.8 5.28 (15:20) 3.33 (16:20) 0 0 0 0 0
17-09-2019 24.6 (16:10) 17.6 (00:00) 21.1 6.11 (16:30) 3.33 (16:30) 0 0 0 0 0
16-09-2019 23.2 (12:30) 16.6 (00:00) 19.9 11.39 (16:40) 7.22 (17:20) 0 0 0 0 0
15-09-2019 22.9 (13:30) 16.2 (00:00) 19.6 11.39 (18:40) 6.11 (18:40) 0 0 0 0 0

Gráficas

Temp. máximas Temp. mínimas Temp. medias Precipitaciones Rachas de viento máximas Velocidades máximas media en intervalos de 10 minutos

Datos horarios

Fecha y hora oficial Temperatura (ºC) Velocidad del viento (km/h) Dirección del viento Racha (km/h) Dirección de racha Precipitación (mm) Presión (hPa) Tendencia (hPa) Humedad (%)
2019-10-14 23:00:00 12.7 15 Sudoeste 24 Sudoeste 9.8 1009 2.1 87
2019-10-14 22:00:00 13 4 Sur 29 Sudoeste 3.2 1008.4 2.6 85
2019-10-14 21:00:00 13.5 17 Sudoeste 42 Oeste 0 1007.8 2.9 77
2019-10-14 20:00:00 13.6 18 Oeste 44 Oeste 0.2 1006.9 2.8 78
2019-10-14 19:00:00 13.6 26 Oeste 65 Sudoeste 1.8 1005.8 2.2 79
2019-10-14 18:00:00 14.6 25 Oeste 40 Sudoeste 0.2 1004.9 1.8 73
2019-10-14 17:00:00 14.2 16 Sudoeste 36 Oeste 0 1004.1 1.3 72
2019-10-14 16:00:00 13 18 Sudoeste 51 Oeste 0 1003.6 1.8 76
2019-10-14 15:00:00 14.5 19 Sudoeste 33 Sudoeste 0.2 1003.1 2.6 81
2019-10-14 14:00:00 12.9 13 Sudoeste 41 Oeste 0.4 1002.8 3.1 88
2019-10-14 13:00:00 13.8 20 Oeste 50 Oeste 6.4 1001.8 3 87
2019-10-14 12:00:00 14.8 13 Sudoeste 25 Sudoeste 0 1000.5 2.4 85
2019-10-14 11:00:00 14.3 18 Sudoeste 34 Sudoeste 0 999.7 1.7 86
2019-10-14 10:00:00 13.7 14 Sudoeste 26 Sudoeste 0.2 998.8 1 88
2019-10-14 09:00:00 13.5 11 Sudoeste 28 Sudoeste 3 998.1 0.2 90
2019-10-14 08:00:00 13.5 12 Sur 26 Sur 3.4 998 -0.5 91
2019-10-14 07:00:00 13.7 14 Sur 32 Sudeste 1 997.8 -1.2 89
2019-10-14 06:00:00 13.8 17 Sur 31 Sur 0 997.9 -1.9 88
2019-10-14 05:00:00 13.6 12 Sur 28 Sur 0 998.5 -2.2 88
2019-10-14 04:00:00 13.5 14 Sur 29 Sur 0.2 999 -2.1 89
2019-10-14 03:00:00 13.4 13 Sudeste 19 Sur 1 999.8 -2 94
2019-10-14 02:00:00 13.6 9 Sudeste 21 Sudeste 0.4 1000.7 -1.5 91
2019-10-14 01:00:00 13.3 6 Sudeste 15 Sur 0.2 1001.1 -1.4 94
2019-10-14 00:00:00 13.4 8 Sudeste 14 Sudeste 1.6 1001.8 -0.5 96
2019-10-13 23:00:00 13.7 5 Sudeste 15 Sudeste 2.4 1002.2 -0.3 94
2019-10-13 22:00:00 14.1 10 Sudeste 16 Sudeste 1.8 1002.5 0.1 88
2019-10-13 21:00:00 14.5 7 Sudeste 13 Sudeste 0.8 1002.3 -0.3 94
2019-10-13 20:00:00 14.6 2 Este 5 Sudeste 2.2 1002.5 -0.4 94
2019-10-13 19:00:00 14.7 0 Calma 8 Este 1.2 1002.4 -0.7 95
2019-10-13 18:00:00 14.8 3 Este 10 Sudeste 2 1002.6 -0.7 94
2019-10-13 17:00:00 14.7 6 Sur 19 Sudoeste 1 1002.9 -1.1 90
2019-10-13 16:00:00 15 8 Oeste 15 Oeste 0.6 1003.1 -0.9 85
2019-10-13 15:00:00 15.4 5 Sudeste 15 Sur 0.8 1003.3 -0.7 88
2019-10-13 14:00:00 15.3 9 Sudoeste 18 Oeste 0.8 1004 0.7 90
2019-10-13 13:00:00 15.5 4 Sur 14 Sudoeste 0.6 1004 1.4 90
2019-10-13 12:00:00 15.3 9 Sudoeste 15 Sudoeste 0.6 1004 2.6 91
2019-10-13 11:00:00 15.1 10 Sudoeste 19 Sudoeste 0.4 1003.3 2.8 92
2019-10-13 10:00:00 14.5 9 Sudoeste 22 Oeste 0.4 1002.6 3.3 96
2019-10-13 09:00:00 14.3 13 Sudoeste 32 Sudoeste 0.6 1001.4 3.6 96
2019-10-13 08:00:00 14.6 15 Oeste 28 Sudoeste 1.6 1000.5 3.2 97
2019-10-13 07:00:00 15 15 Oeste 31 Oeste 6.4 999.3 1.7 95
2019-10-13 06:00:00 17.3 12 Sudoeste 49 Sur 4.2 997.8 -0.5 89
2019-10-13 05:00:00 18.1 22 Sur 53 Sur 0 997.3 -1.2 80
2019-10-13 04:00:00 18 22 Sur 60 Sur 0 997.6 -2.1 79
2019-10-13 03:00:00 18.3 21 Sur 68 Sur 0 998.3 -1.6 74
2019-10-13 02:00:00 18.5 23 Sur 44 Sur 0 998.5 -1.6 70
2019-10-13 01:00:00 18.3 18 Sur 55 Sur 0 999.7 -0.3 70
2019-10-13 00:00:00 18.2 23 Sur 53 Sur 0 999.9 -0.7 72
2019-10-12 23:00:00 18.2 19 Sur 49 Sudoeste 0 1000.1 -0.6 72
2019-10-12 22:00:00 18.3 17 Sur 57 Sur 0 1000 -1.2 71
2019-10-12 21:00:00 18.6 14 Sur 48 Sur 0 1000.6 -0.7 71
2019-10-12 20:00:00 19.3 12 Sur 43 Sur 0 1000.7 -1 66
2019-10-12 19:00:00 20.5 14 Sur 35 Sur 0 1001.2 -0.4 60
2019-10-12 18:00:00 21.3 13 Sudoeste 50 Sudoeste 0 1001.3 -0.9 58
2019-10-12 17:00:00 21.9 26 Sudoeste 45 Sudoeste 0 1001.7 -1.1 57
2019-10-12 16:00:00 22.1 15 Sur 42 Sudoeste 0 1001.6 -1.8 56
2019-10-12 15:00:00 22.1 16 Sudoeste 43 Sudoeste 0 1002.2 -1.7 55
2019-10-12 14:00:00 21.9 18 Sudoeste 48 Sudoeste 0 1002.8 -1.1 55
2019-10-12 13:00:00 21.3 14 Sur 40 Sur 0 1003.4 -0.6 58
2019-10-12 12:00:00 20.1 15 Sur 36 Sudoeste 0 1003.9 -0.1 61
2019-10-12 11:00:00 18.7 8 Sur 19 Sudeste 0 1003.9 0 70
2019-10-12 10:00:00 16.6 5 Sudeste 15 Sudeste 0 1004 0.3 82
2019-10-12 09:00:00 16.4 8 Sudeste 15 Sudeste 0 1004 0 81
2019-10-12 08:00:00 16.3 8 Sur 26 Sudoeste 0 1003.9 -0.4 81
2019-10-12 07:00:00 16 8 Sudeste 25 Sur 0 1003.7 -1.5 83
2019-10-12 06:00:00 16.6 17 Sur 27 Sur 0 1004 -1.9 79
2019-10-12 05:00:00 15.9 14 Sudeste 22 Sur 0 1004.3 -1.9 84
2019-10-12 04:00:00 15.7 5 Sudeste 14 Sudeste 0 1005.2 -1.9 85
2019-10-12 03:00:00 15.8 6 Sudeste 15 Sur 0 1005.9 -1.5 83
2019-10-12 02:00:00 15.7 9 Sudeste 15 Sudeste 0 1006.2 -1.1 82
2019-10-12 01:00:00 16.1 8 Sudeste 21 Sur 0 1007.1 0 80
2019-10-12 00:00:00 16.1 13 Sudoeste 20 Sur 0 1007.4 0.4 80
2019-10-11 23:00:00 16.3 4 Sudoeste 13 Sur 0 1007.3 0.4 86
2019-10-11 22:00:00 16.7 7 Sur 15 Sur 0 1007.1 -0.2 84
2019-10-11 21:00:00 16.7 9 Sudoeste 27 Oeste 0 1007 -0.3 83
2019-10-11 20:00:00 16.7 9 Oeste 30 Oeste 0 1006.9 -0.7 82
2019-10-11 19:00:00 17.3 18 Oeste 33 Oeste 0 1007.3 -0.5 80
2019-10-11 18:00:00 18.2 16 Oeste 28 Oeste 0 1007.3 -0.9 77
2019-10-11 17:00:00 19 17 Oeste 26 Noroeste 0 1007.6 -1.7 76
2019-10-11 16:00:00 18.7 8 Norte 16 Nordeste 0 1007.8 -2.2 75
2019-10-11 15:00:00 19.2 11 Este 17 Nordeste 0 1008.2 -2 73
2019-10-11 14:00:00 17.9 7 Oeste 15 Oeste 0 1009.3 -1.1 76
2019-10-11 13:00:00 16.5 8 Oeste 15 Oeste 0 1010 -0.2 84
2019-10-11 12:00:00 15.9 8 Oeste 12 Sudoeste 0 1010.2 0.4 89
2019-10-11 11:00:00 15.7 4 Sur 8 Sur 0 1010.4 0.7 89
2019-10-11 10:00:00 15 5 Sur 9 Sur 0 1010.2 0.5 91
2019-10-11 09:00:00 14.6 5 Sur 12 Sur 0 1009.8 0.2 92
2019-10-11 08:00:00 14.4 2 Sur 12 Sur 0 1009.7 -0.2 94
2019-10-11 07:00:00 13.9 2 Sudeste 6 Sudeste 0 1009.7 -0.5 95
2019-10-11 06:00:00 13.9 4 Sudeste 9 Sudeste 0 1009.6 -0.8 95
2019-10-11 05:00:00 14.4 4 Sudeste 13 Sudeste 0 1009.9 -0.8 94
2019-10-11 04:00:00 14.7 2 Sudeste 6 Oeste 0 1010.2 -1 95
2019-10-11 03:00:00 15 3 Oeste 7 Sur 0 1010.4 -1.3 92
2019-10-11 02:00:00 15.8 3 Sudoeste 9 Sur 0 1010.7 -1.3 90
2019-10-11 01:00:00 16.1 5 Sur 9 Sudeste 0 1011.2 -1 90
2019-10-11 00:00:00 16.2 5 Sudeste 8 Sudeste 0 1011.7 -0.2 91
2019-10-10 23:00:00 16.3 3 Noroeste 13 Norte 0 1012 0.2 91
2019-10-10 22:00:00 16.5 6 Noroeste 17 Norte 0 1012.2 0 92
2019-10-10 21:00:00 16.4 7 Noroeste 13 Norte 0 1011.9 -0.5 91
2019-10-10 20:00:00 16.6 7 Noroeste 17 Norte 0 1011.8 -1.1 90
2019-10-10 19:00:00 17 8 Noroeste 17 Noroeste 0 1012.2 -1 88
2019-10-10 18:00:00 17.2 10 Noroeste 22 Noroeste 0 1012.4 -1.7 87
2019-10-10 17:00:00 17.8 10 Noroeste 23 Noroeste 0 1012.9 -2 83
2019-10-10 16:00:00 18.7 10 Norte 19 Norte 0 1013.2 -2.1 76
2019-10-10 15:00:00 19.7 10 Norte 14 Norte 0 1014.1 -1.5 68
2019-10-10 14:00:00 19.3 8 Norte 14 Norte 0 1014.9 -1 68
2019-10-10 13:00:00 19.2 6 Este 11 Este 0 1015.3 -0.3 67
2019-10-10 12:00:00 18.4 5 Sudeste 15 Sudeste 0 1015.6 0.2 70
2019-10-10 11:00:00 16.7 6 Sudeste 15 Sudeste 0 1015.9 0.6 76
2019-10-10 10:00:00 14.7 4 Sudeste 14 Sur 0 1015.6 0.4 86
2019-10-10 09:00:00 13 2 Sudeste 10 Sur 0 1015.4 0.1 91
2019-10-10 08:00:00 12.7 4 Sudeste 10 Sur 0 1015.3 -0.2 93
2019-10-10 07:00:00 12.7 6 Sur 9 Sur 0 1015.2 -0.6 95
2019-10-10 06:00:00 12.7 3 Sur 7 Sur 0 1015.3 -0.9 93
2019-10-10 05:00:00 13 0 Calma 10 Sur 0 1015.5 -0.9 90
2019-10-10 04:00:00 13.7 5 Sur 11 Sur 0 1015.8 -0.8 90
2019-10-10 03:00:00 13.6 3 Sudeste 8 Sur 0 1016.2 -0.5 88
2019-10-10 02:00:00 14.2 4 Sudeste 7 Sur 0 1016.4 -0.3 86
2019-10-10 01:00:00 14.7 3 Sur 6 Sudoeste 0 1016.6 0.2 86
2019-10-10 00:00:00 15 3 Oeste 5 Oeste 0 1016.7 0.3 83
2019-10-09 23:00:00 15.2 2 Sur 6 Sudoeste 0 1016.7 0.3 83
2019-10-09 22:00:00 15.3 5 Oeste 7 Oeste 0 1016.4 0.3 82
2019-10-09 21:00:00 15.7 4 Oeste 11 Oeste 0 1016.4 0.4 81
2019-10-09 20:00:00 16.3 7 Oeste 13 Oeste 0 1016.4 0.3 76
2019-10-09 19:00:00 16.9 7 Noroeste 20 Oeste 0 1016.1 -0.2 77
2019-10-09 18:00:00 17.6 14 Oeste 20 Noroeste 0 1016 -0.4 73
2019-10-09 17:00:00 19.1 14 Oeste 18 Oeste 0 1016.1 -0.4 65
2019-10-09 16:00:00 19.3 12 Oeste 20 Noroeste 0 1016.3 -0.3 59
2019-10-09 15:00:00 19.1 13 Oeste 23 Oeste 0 1016.4 -0.4 60
2019-10-09 14:00:00 19 11 Oeste 20 Noroeste 0 1016.5 0 63
2019-10-09 13:00:00 19.4 10 Oeste 17 Oeste 0 1016.6 0.4 63
2019-10-09 12:00:00 18.1 12 Oeste 18 Oeste 0 1016.8 1.3 66
2019-10-09 11:00:00 16 7 Sudoeste 14 Sudoeste 0 1016.5 1.3 75
2019-10-09 10:00:00 15.3 6 Oeste 14 Oeste 0 1016.2 1.3 81
2019-10-09 09:00:00 14.9 6 Sudoeste 16 Oeste 0 1015.5 0.7 83
2019-10-09 08:00:00 14.6 6 Oeste 17 Sudoeste 0 1015.2 0.3 85
2019-10-09 07:00:00 14.7 8 Sudoeste 15 Sudoeste 0 1014.9 -0.1 83
2019-10-09 06:00:00 14.8 11 Sudoeste 17 Sudoeste 0 1014.8 -0.2 84
2019-10-09 05:00:00 14.9 12 Sudoeste 18 Sudoeste 0 1014.9 -0.1 85
2019-10-09 04:00:00 14.8 10 Sudoeste 19 Sudoeste 0 1015 0 88
2019-10-09 03:00:00 15.1 14 Sudoeste 21 Sudoeste 0 1015 0.2 87
2019-10-09 02:00:00 15.2 11 Sudoeste 16 Sudoeste 0 1015 0.1 85
2019-10-09 01:00:00 15.3 6 Oeste 13 Sudoeste 0 1015 -0.1 84
2019-10-09 00:00:00 15.3 7 Sudoeste 12 Oeste 0 1014.8 0.1 86
2019-10-08 23:00:00 15.4 7 Oeste 13 Oeste 0 1014.9 0.6 87
2019-10-08 22:00:00 15.5 9 Oeste 14 Oeste 0 1015.1 1.2 88
2019-10-08 21:00:00 15.9 9 Oeste 15 Oeste 0 1014.7 0.9 86
2019-10-08 20:00:00 16.6 8 Oeste 17 Oeste 0 1014.3 0.7 83
2019-10-08 19:00:00 17.3 10 Oeste 22 Oeste 0 1013.9 0.2 81
2019-10-08 18:00:00 18 15 Oeste 23 Oeste 0 1013.8 0.2 81
2019-10-08 17:00:00 18.9 13 Oeste 24 Oeste 0 1013.6 -0.1 79
2019-10-08 16:00:00 18.4 12 Oeste 19 Oeste 0 1013.7 -0.1 84
2019-10-08 15:00:00 18.3 7 Noroeste 12 Oeste 0 1013.6 -0.3 80
2019-10-08 14:00:00 17.6 3 Nordeste 8 Este 0 1013.7 0.4 82
2019-10-08 13:00:00 16.1 2 Este 18 Noroeste 0.2 1013.8 1.9 92
2019-10-08 12:00:00 15.6 12 Noroeste 27 Noroeste 1.2 1013.9 3.3 99
2019-10-08 11:00:00 16 14 Noroeste 28 Noroeste 2.8 1013.3 2.9 99
2019-10-08 10:00:00 16.7 16 Noroeste 36 Noroeste 1.6 1011.9 1.4 97
2019-10-08 09:00:00 19.8 6 Sudoeste 14 Sudoeste 0.6 1010.6 0.2 94
2019-10-08 08:00:00 19.9 11 Sudoeste 22 Sudoeste 0.2 1010.4 -0.4 92
2019-10-08 07:00:00 19.8 6 Sudoeste 13 Sudoeste 0 1010.5 -0.7 90
2019-10-08 06:00:00 20.2 4 Oeste 14 Sur 0 1010.4 -1 85
2019-10-08 05:00:00 20.3 4 Sur 14 Sudoeste 0 1010.8 -0.9 84
2019-10-08 04:00:00 20.5 11 Oeste 16 Oeste 0 1011.2 -1 83
2019-10-08 03:00:00 20.8 10 Sur 16 Sudoeste 0 1011.4 -1.2 83
2019-10-08 02:00:00 20.5 8 Sur 13 Sur 0 1011.7 -1.5 87
2019-10-08 01:00:00 20.6 8 Sudoeste 16 Sudoeste 0 1012.2 -0.6 88
2019-10-08 00:00:00 20.2 11 Sur 19 Oeste 0.2 1012.6 0.1 92
2019-10-07 23:00:00 20.4 10 Oeste 18 Oeste 0 1013.2 0.8 88
2019-10-07 22:00:00 20.4 6 Sur 9 Sur 0 1012.8 0 78
2019-10-07 21:00:00 20.3 4 Sur 5 Sur 0 1012.5 -0.4 74
2019-10-07 20:00:00 20.3 3 Sudeste 6 Sudeste 0 1012.4 -0.8 77
2019-10-07 19:00:00 20.7 3 Nordeste 8 Oeste 0 1012.8 -0.5 70
2019-10-07 18:00:00 21.2 6 Oeste 9 Oeste 0 1012.9 -0.7 69
2019-10-07 17:00:00 21.9 5 Norte 7 Norte 0 1013.2 -1 58
2019-10-07 16:00:00 21.7 3 Nordeste 5 Nordeste 0 1013.3 -1.1 57
2019-10-07 15:00:00 21.5 4 Nordeste 6 Nordeste 0 1013.6 -0.8 57
2019-10-07 14:00:00 21.7 5 Nordeste 10 Norte 0 1014.2 -0.1 54
2019-10-07 13:00:00 20.8 6 Nordeste 9 Este 0 1014.4 0.5 58
2019-10-07 12:00:00 20.8 5 Este 9 Este 0 1014.4 0.5 61
2019-10-07 11:00:00 18.6 3 Sudeste 5 Este 0 1014.3 0.1 72
2019-10-07 10:00:00 15.9 2 Este 12 Sur 0 1013.9 -0.1 82
2019-10-07 09:00:00 14.1 9 Sur 13 Sur 0 1013.9 0.3 86
2019-10-07 08:00:00 13.9 5 Sur 12 Sur 0 1014.2 0.7 86
2019-10-07 07:00:00 13.4 3 Sur 4 Sudoeste 0 1014 0.3 90
2019-10-07 06:00:00 13.6 2 Oeste 9 Oeste 0 1013.6 -0.7 88
2019-10-07 05:00:00 13.6 2 Sudeste 3 Este 0 1013.5 -0.9 89
2019-10-07 04:00:00 13.9 0 Calma 3 Noroeste 0 1013.7 -1.4 88
2019-10-07 03:00:00 14.5 0 Calma 12 Sur 0 1014.3 -0.9 86
2019-10-07 02:00:00 15.1 3 Sudeste 10 Sur 0 1014.4 -0.9 84
2019-10-07 01:00:00 15.3 0 Calma 7 Sur 0 1015.1 -0.4 86
2019-10-07 00:00:00 15.6 2 Nordeste 6 Sur 0 1015.2 -0.5 85
2019-10-06 23:00:00 15.9 3 Sur 8 Sudoeste 0 1015.3 -0.3 84
2019-10-06 22:00:00 16.1 4 Oeste 9 Oeste 0 1015.5 0.2 86
2019-10-06 21:00:00 16.4 5 Noroeste 14 Norte 0 1015.7 0.8 85
2019-10-06 20:00:00 16.7 9 Noroeste 18 Norte 0 1015.6 0.6 85
2019-10-06 19:00:00 16.9 9 Noroeste 18 Norte 0 1015.3 0.1 87
2019-10-06 18:00:00 17.3 9 Noroeste 18 Norte 0 1014.9 -0.8 84
2019-10-06 17:00:00 18.1 13 Noroeste 19 Noroeste 0 1015 -1.2 78
2019-10-06 16:00:00 18.5 11 Norte 17 Noroeste 0 1015.2 -1.1 78
2019-10-06 15:00:00 19 8 Norte 18 Norte 0 1015.7 -0.5 80
2019-10-06 14:00:00 19.2 11 Norte 17 Norte 0 1016.2 0.2 80
2019-10-06 13:00:00 19.1 5 Norte 11 Norte 0 1016.3 1.1 79
2019-10-06 12:00:00 18.2 5 Nordeste 8 Este 0 1016.2 1.4 86
2019-10-06 11:00:00 16.2 4 Este 7 Este 0 1016 1.7 96
2019-10-06 10:00:00 15.8 0 Calma 5 Norte 0 1015.2 1.5 98
2019-10-06 09:00:00 15.9 0 Calma 8 Norte 0 1014.8 1.4 98
2019-10-06 08:00:00 16 4 Norte 6 Norte 0 1014.3 1 97
2019-10-06 07:00:00 16 0 Calma 4 Este 0 1013.7 0.2 97
2019-10-06 06:00:00 15.9 2 Este 4 Nordeste 0.2 1013.4 -0.3 98
2019-10-06 05:00:00 15.9 0 Calma 12 Sudeste 0.6 1013.3 -0.4 97
2019-10-06 04:00:00 15.8 7 Sudeste 14 Sudeste 0 1013.5 0 96
2019-10-06 03:00:00 15.8 6 Sudeste 9 Sudeste 0.8 1013.7 0.1 95
2019-10-06 02:00:00 16.8 4 Este 12 Oeste 2 1013.7 0.3 91
2019-10-06 01:00:00 18.7 6 Sur 14 Sur 0 1013.5 0.5 71
2019-10-06 00:00:00 18.7 7 Sudoeste 14 Sudoeste 0 1013.6 0.6 69
2019-10-05 23:00:00 18.5 6 Sur 13 Sudoeste 0 1013.4 0.8 70
2019-10-05 22:00:00 17.9 4 Sudoeste 11 Sudeste 0 1013 1 72
2019-10-05 21:00:00 18.1 0 Calma 8 Sudoeste 0 1013 1.1 71
2019-10-05 20:00:00 18.5 3 Sudoeste 12 Oeste 0 1012.6 0.8 68
2019-10-05 19:00:00 18.7 11 Oeste 20 Noroeste 0 1012 0.3 70
2019-10-05 18:00:00 20.6 9 Oeste 24 Oeste 0 1011.9 -0.2 57
2019-10-05 17:00:00 21.2 8 Oeste 18 Sudoeste 0 1011.8 -0.4 54
2019-10-05 16:00:00 21.4 10 Sudoeste 20 Sudoeste 0 1011.7 -0.5 52
2019-10-05 15:00:00 20.2 12 Oeste 26 Noroeste 0 1012.1 -0.1 55
2019-10-05 14:00:00 19 13 Oeste 21 Noroeste 0 1012.2 0.1 62
2019-10-05 13:00:00 18.8 8 Norte 10 Norte 0 1012.2 0.4 65
2019-10-05 12:00:00 17.4 4 Nordeste 7 Nordeste 0 1012.2 0.9 70
2019-10-05 11:00:00 17.7 4 Nordeste 6 Nordeste 0 1012.1 1.4 72
2019-10-05 10:00:00 15.1 0 Calma 5 Sudeste 0 1011.8 1.3 82
2019-10-05 09:00:00 14.4 0 Calma 5 Noroeste 0 1011.3 0.7 83
2019-10-05 08:00:00 14.4 0 Calma 9 Sudeste 0 1010.7 0.1 81
2019-10-05 07:00:00 14.4 3 Sudeste 9 Sudeste 0 1010.5 -0.7 81
2019-10-05 06:00:00 14.2 4 Sudeste 10 Sudeste 0 1010.6 -1.1 82
2019-10-05 05:00:00 14.3 5 Sudeste 9 Sur 0 1010.6 -1.2 83
2019-10-05 04:00:00 14.3 0 Calma 5 Sur 0 1011.2 -0.6 85
2019-10-05 03:00:00 13.9 3 Sudeste 3 Sudeste 0 1011.7 -0.1 87
2019-10-05 02:00:00 13.9 0 Calma 2 Nordeste 0 1011.8 0.1 84
2019-10-05 01:00:00 14.6 0 Calma 5 Sudeste 0 1011.8 0 82
2019-10-05 00:00:00 15 3 Sudeste 5 Sudeste 0 1011.8 0.2 81
2019-10-04 23:00:00 15.4 3 Sudeste 7 Sudeste 0 1011.7 0 84
2019-10-04 22:00:00 15.7 0 Calma 4 Oeste 0 1011.8 0.3 77
2019-10-04 21:00:00 16.3 3 Oeste 8 Oeste 0 1011.6 0.2 76
2019-10-04 20:00:00 17.1 5 Oeste 14 Noroeste 0 1011.7 0 76
2019-10-04 19:00:00 17.7 9 Norte 14 Noroeste 0 1011.5 -0.6 67
2019-10-04 18:00:00 18.3 6 Noroeste 12 Noroeste 0 1011.4 -1.2 59
2019-10-04 17:00:00 19.2 8 Noroeste 12 Norte 0 1011.7 -1.3 61
2019-10-04 16:00:00 19.5 7 Nordeste 13 Norte 0 1012.1 -0.8 58
2019-10-04 15:00:00 19.7 7 Norte 16 Norte 0 1012.6 -0.4 58
2019-10-04 14:00:00 19.5 6 Norte 14 Oeste 0 1013 -0.2 60
2019-10-04 13:00:00 19.3 8 Noroeste 13 Oeste 0 1012.9 0 61
2019-10-04 12:00:00 18.4 6 Oeste 14 Noroeste 0 1013 0.5 66
2019-10-04 11:00:00 17.6 8 Oeste 12 Oeste 0 1013.2 1 85
2019-10-04 10:00:00 16.8 6 Oeste 10 Sudoeste 0 1012.9 0.9 90
2019-10-04 09:00:00 16.6 5 Oeste 15 Oeste 0 1012.5 0.6 96
2019-10-04 08:00:00 16.8 9 Oeste 15 Oeste 0 1012.2 0.3 96
2019-10-04 07:00:00 16.9 11 Oeste 14 Oeste 0 1012 0 93
2019-10-04 06:00:00 17.3 6 Oeste 12 Oeste 0 1011.9 -0.4 89
2019-10-04 05:00:00 17.5 6 Oeste 14 Oeste 0 1011.9 -0.5 84
2019-10-04 04:00:00 17.6 9 Oeste 15 Oeste 0 1012 -0.8 90
2019-10-04 03:00:00 17.6 9 Oeste 15 Sudoeste 0 1012.3 -0.5 91
2019-10-04 02:00:00 17.7 10 Sudoeste 19 Oeste 0 1012.4 -0.3 91
2019-10-04 01:00:00 18 9 Oeste 18 Oeste 0 1012.8 0.2 89
2019-10-04 00:00:00 18.3 8 Oeste 19 Sudoeste 0 1012.8 0.5 88
2019-10-03 23:00:00 18.4 11 Sudoeste 21 Sudoeste 0 1012.7 1.2 87
2019-10-03 22:00:00 18.8 14 Sudoeste 32 Sudoeste 0 1012.6 1.2 86
2019-10-03 21:00:00 19.5 19 Sudoeste 35 Sudoeste 0 1012.3 1.3 84
2019-10-03 20:00:00 19.7 16 Sudoeste 30 Sudoeste 0.2 1011.5 0.4 83
2019-10-03 19:00:00 20.2 9 Sur 28 Sudoeste 0 1011.4 0 83
2019-10-03 18:00:00 21.9 11 Sur 31 Sudoeste 0 1011 -0.4 71
2019-10-03 17:00:00 21.3 12 Sur 23 Sur 0 1011.1 -0.9 74
2019-10-03 16:00:00 21.2 11 Sudeste 21 Sudeste 0 1011.4 -0.7 73
2019-10-03 15:00:00 21.4 10 Sudeste 23 Sur 0 1011.4 -1.3 68
2019-10-03 14:00:00 20.6 13 Sur 27 Sur 0 1012 -0.6 67
2019-10-03 13:00:00 20 14 Sur 27 Sur 0 1012.1 -0.2 70
2019-10-03 12:00:00 19.4 10 Sur 18 Sur 0 1012.7 0.4 69
2019-10-03 11:00:00 16.3 7 Sur 15 Sudeste 0 1012.6 0.5 78
2019-10-03 10:00:00 14.8 6 Sudeste 15 Sudeste 0 1012.3 0.1 83
2019-10-03 09:00:00 13.7 8 Sudeste 18 Sur 0 1012.3 -0.1 87
2019-10-03 08:00:00 14.1 10 Sur 15 Sur 0 1012.1 -0.5 86
2019-10-03 07:00:00 13.7 5 Sudoeste 10 Sudoeste 0 1012.2 -0.4 88
2019-10-03 06:00:00 14.1 6 Sur 13 Sur 0 1012.4 -0.3 88
2019-10-03 05:00:00 13.5 3 Oeste 7 Sur 0 1012.6 -0.1 91
2019-10-03 04:00:00 13.6 2 Oeste 5 Noroeste 0 1012.6 -0.7 91
2019-10-03 03:00:00 14 4 Sudeste 9 Sudeste 0 1012.7 -1 92
2019-10-03 02:00:00 14.4 2 Sudeste 5 Sur 0 1012.7 -1.2 91
2019-10-03 01:00:00 15 4 Sudeste 6 Sur 0 1013.3 -1.1 90
2019-10-03 00:00:00 15.4 4 Este 6 Este 0 1013.7 -1 91
2019-10-02 23:00:00 15.8 0 Calma 5 Sudeste 0 1013.9 -0.7 88
2019-10-02 22:00:00 16.1 2 Nordeste 8 Norte 0 1014.4 0 87
2019-10-02 21:00:00 16.5 5 Noroeste 8 Norte 0 1014.7 0.1 85
2019-10-02 20:00:00 16.9 3 Norte 12 Noroeste 0 1014.6 0 82
2019-10-02 19:00:00 17.6 6 Noroeste 16 Norte 0 1014.4 -0.6 76
2019-10-02 18:00:00 17.8 9 Norte 15 Nordeste 0 1014.6 -0.3 74
2019-10-02 17:00:00 19 9 Nordeste 14 Nordeste 0 1014.6 -0.4 69
2019-10-02 16:00:00 19.1 9 Noroeste 18 Norte 0 1015 0 68
2019-10-02 15:00:00 19.8 14 Norte 19 Oeste 0 1014.9 -0.2 66
2019-10-02 14:00:00 19.7 11 Oeste 17 Noroeste 0 1015 0.1 64
2019-10-02 13:00:00 19.3 12 Oeste 18 Oeste 0 1015 0.9 72
2019-10-02 12:00:00 18.3 9 Noroeste 15 Oeste 0 1015.1 1.8 73
2019-10-02 11:00:00 18.3 9 Oeste 15 Oeste 0 1014.9 2.1 76
2019-10-02 10:00:00 16.6 10 Sudoeste 15 Sudoeste 0 1014.1 1.6 85
2019-10-02 09:00:00 15.7 9 Oeste 16 Sudoeste 0 1013.3 0.9 87
2019-10-02 08:00:00 15.8 11 Sudoeste 19 Oeste 0 1012.8 0.4 85
2019-10-02 07:00:00 16.2 9 Sudoeste 26 Oeste 0 1012.5 -0.4 80
2019-10-02 06:00:00 16.3 14 Oeste 23 Oeste 0 1012.4 -0.4 83
2019-10-02 05:00:00 16.3 14 Sudoeste 27 Sudoeste 0 1012.4 -0.4 86
2019-10-02 04:00:00 16.2 15 Sudoeste 22 Sudoeste 0 1012.9 0.1 87
2019-10-02 03:00:00 16.3 12 Sudoeste 31 Sudoeste 0.2 1012.8 0.1 87
2019-10-02 02:00:00 16.8 12 Sudoeste 26 Sudoeste 0 1012.8 0.4 82
2019-10-02 01:00:00 16.8 13 Sudoeste 21 Oeste 0 1012.8 0.7 82
2019-10-02 00:00:00 16.9 13 Sudoeste 25 Sudoeste 0 1012.7 1.4 82
2019-10-01 23:00:00 17.1 10 Sudoeste 23 Oeste 0 1012.4 1.6 81
2019-10-01 22:00:00 17 12 Sudoeste 24 Sudoeste 0 1012.1 1.6 83
2019-10-01 21:00:00 17.3 13 Sudoeste 31 Oeste 0 1011.3 1.2 82
2019-10-01 20:00:00 17.8 18 Sudoeste 33 Oeste 0 1010.8 1 82
2019-10-01 19:00:00 18.5 17 Oeste 39 Oeste 0 1010.5 1 75
2019-10-01 18:00:00 19.3 19 Oeste 41 Oeste 0 1010.1 0.7 74
2019-10-01 17:00:00 20.3 21 Oeste 42 Oeste 0 1009.8 0.4 72
2019-10-01 16:00:00 21.2 16 Oeste 42 Oeste 0 1009.5 0.1 66
2019-10-01 15:00:00 21.4 22 Oeste 42 Oeste 0 1009.4 0.1 66
2019-10-01 14:00:00 21.9 22 Oeste 39 Sudoeste 0 1009.4 0.6 64
2019-10-01 13:00:00 20.6 20 Oeste 35 Sudoeste 0 1009.4 1.3 72
2019-10-01 12:00:00 20 18 Oeste 31 Oeste 0 1009.3 1.7 74
2019-10-01 11:00:00 19.2 18 Sudoeste 32 Sudoeste 0 1008.8 1.9 77
2019-10-01 10:00:00 18.5 15 Sudoeste 31 Sudoeste 0 1008.1 1.5 83
2019-10-01 09:00:00 17.8 13 Sudoeste 30 Sudoeste 0 1007.6 1.3 87
2019-10-01 08:00:00 18 13 Sudoeste 32 Sudoeste 0 1006.9 0.7 86
2019-10-01 07:00:00 18.3 15 Sudoeste 28 Sudoeste 0 1006.6 -0.2 85
2019-10-01 06:00:00 18.3 15 Sudoeste 28 Oeste 0 1006.3 -0.4 85
2019-10-01 05:00:00 18.6 6 Sudoeste 22 Sudoeste 0 1006.2 -0.5 87
2019-10-01 04:00:00 18.8 14 Sudoeste 23 Sudoeste 0 1006.8 0.1 87
2019-10-01 03:00:00 18.9 8 Sudoeste 23 Sudoeste 0.2 1006.7 -0.2 85
2019-10-01 02:00:00 19.5 11 Sur 27 Sur 0 1006.7 -0.3 78
2019-10-01 01:00:00 19.4 11 Sur 35 Sur 0 1006.7 -0.6 78
2019-10-01 00:00:00 19.9 14 Sur 33 Sur 0 1006.9 -0.3 75
2019-09-30 23:00:00 20.1 10 Sur 27 Sudoeste 0 1007 0 72
2019-09-30 22:00:00 20.2 10 Sur 34 Sudoeste 0 1007.3 0.2 70
2019-09-30 21:00:00 20.7 17 Sudoeste 35 Sudoeste 0 1007.2 -0.1 69
2019-09-30 20:00:00 21.6 19 Sudoeste 35 Sudoeste 0 1007 -0.2 69
2019-09-30 19:00:00 22.7 23 Sudoeste 42 Sudoeste 0 1007.1 -0.4 63
2019-09-30 18:00:00 23.8 18 Sudoeste 40 Sudoeste 0 1007.3 -0.6 61
2019-09-30 17:00:00 24.8 12 Sudoeste 36 Sudoeste 0 1007.2 -1.5 60
2019-09-30 16:00:00 24.4 17 Sudoeste 42 Sudoeste 0 1007.5 -1.5 62
2019-09-30 15:00:00 24.3 11 Sudoeste 36 Sudoeste 0 1007.9 -1.1 65
2019-09-30 14:00:00 21.4 11 Oeste 19 Oeste 0 1008.7 -0.4 84
2019-09-30 13:00:00 21.3 10 Oeste 22 Noroeste 0 1009 0.1 87
2019-09-30 12:00:00 22.2 8 Sur 22 Sur 0 1009 0.1 79
2019-09-30 11:00:00 21.6 7 Sur 19 Sur 0 1009.1 0.5 82
2019-09-30 10:00:00 20.2 7 Sur 15 Sudeste 0 1008.9 0.3 90
2019-09-30 09:00:00 19.6 8 Sur 14 Sur 0.4 1008.9 0 93
2019-09-30 08:00:00 19.5 7 Sudoeste 12 Sudoeste 0 1008.6 -0.5 91
2019-09-30 07:00:00 19.5 5 Sudeste 9 Sudeste 0 1008.6 -0.8 91
2019-09-30 06:00:00 19.5 2 Sudeste 11 Sur 0 1008.9 -0.8 91
2019-09-30 05:00:00 19.5 6 Sudoeste 18 Sur 0 1009.1 -1 91
2019-09-30 04:00:00 19.2 5 Sur 18 Sur 0 1009.4 -0.9 93
2019-09-30 03:00:00 18.9 9 Sur 19 Sur 0 1009.7 -1 93
2019-09-30 02:00:00 18.5 14 Sur 19 Sur 0 1010.1 -1 94
2019-09-30 01:00:00 18.2 10 Sur 14 Sur 0 1010.3 -0.6 97
2019-09-30 00:00:00 18 0 Calma 5 Sudeste 0 1010.7 0.2 97
2019-09-29 23:00:00 18.1 0 Calma 5 Este 0 1011.1 0.7 98
2019-09-29 22:00:00 18.1 3 Este 5 Este 0 1010.9 0.6 98
2019-09-29 21:00:00 17.9 5 Sudoeste 26 Oeste 0.2 1010.5 0.6 98
2019-09-29 20:00:00 17.6 15 Oeste 32 Oeste 0.4 1010.4 0.8 97
2019-09-29 19:00:00 18.4 9 Oeste 19 Oeste 0.2 1010.3 0.8 95
2019-09-29 18:00:00 18.8 10 Oeste 17 Oeste 0 1009.9 0.3 93
2019-09-29 17:00:00 19.2 12 Oeste 28 Sudoeste 0 1009.6 0.1 91
2019-09-29 16:00:00 21.2 15 Sudoeste 35 Sudoeste 0 1009.5 0.1 82
2019-09-29 15:00:00 20.6 18 Sudoeste 41 Sudoeste 0 1009.6 0.2 85
2019-09-29 14:00:00 21.3 22 Sudoeste 41 Sudoeste 0 1009.5 0.6 79
2019-09-29 13:00:00 20.7 18 Sudoeste 43 Sudoeste 0 1009.4 1.2 81
2019-09-29 12:00:00 20 16 Sudoeste 33 Sudoeste 0 1009.4 1.7 83
2019-09-29 11:00:00 19.2 18 Sudoeste 36 Sudoeste 0.6 1008.9 1.5 86
2019-09-29 10:00:00 18.7 17 Sur 34 Sur 0.8 1008.2 0.9 87
2019-09-29 09:00:00 18.3 17 Sur 37 Sur 0 1007.7 -0.5 86
2019-09-29 08:00:00 18.1 17 Sur 40 Sur 0 1007.4 -1.1 84
2019-09-29 07:00:00 17.9 13 Sur 28 Sudeste 0 1007.3 -2.3 83
2019-09-29 06:00:00 17.5 10 Sur 20 Sur 0 1008.2 -1.4 84
2019-09-29 05:00:00 17.6 13 Sur 43 Sudoeste 0 1008.5 -1.3 84
2019-09-29 04:00:00 16.4 9 Sudoeste 26 Sudoeste 0 1009.6 -1 86
2019-09-29 03:00:00 16.4 6 Sudoeste 18 Sur 0 1009.6 -1 82
2019-09-29 02:00:00 16.2 7 Sur 23 Sur 0 1009.8 -0.5 82
2019-09-29 01:00:00 16.3 7 Sur 24 Sur 0 1010.6 -0.1 78
2019-09-29 00:00:00 16.8 12 Sur 26 Sur 0 1010.6 0.2 73
2019-09-28 23:00:00 17.3 16 Sur 24 Sur 0 1010.3 -0.3 66
2019-09-28 22:00:00 17.8 12 Sudoeste 21 Sudoeste 0 1010.7 -0.2 67
2019-09-28 21:00:00 17.8 7 Sur 12 Sur 0 1010.4 -0.5 74
2019-09-28 20:00:00 18.1 5 Noroeste 21 Oeste 0 1010.6 -1 75
2019-09-28 19:00:00 18.3 11 Oeste 20 Oeste 0 1010.9 -1.2 75
2019-09-28 18:00:00 18.5 7 Oeste 27 Oeste 0 1010.9 -1.8 72
2019-09-28 17:00:00 19.7 14 Oeste 29 Noroeste 0 1011.6 -1.5 64
2019-09-28 16:00:00 19.2 14 Oeste 27 Oeste 0 1012.1 -1.9 66
2019-09-28 15:00:00 20.3 14 Oeste 21 Oeste 0 1012.7 -1.7 61
2019-09-28 14:00:00 20.3 6 Norte 10 Nordeste 0 1013.1 -1.5 59
2019-09-28 13:00:00 19.2 7 Nordeste 11 Nordeste 0 1014 -0.6 62
2019-09-28 12:00:00 18 5 Nordeste 9 Nordeste 0 1014.4 0.3 68
2019-09-28 11:00:00 16.9 4 Este 8 Este 0 1014.6 0.8 72
2019-09-28 10:00:00 14.6 2 Este 9 Sur 0 1014.6 0.7 80
2019-09-28 09:00:00 12.9 6 Sur 12 Sur 0 1014.1 -0.2 85
2019-09-28 08:00:00 12.9 7 Sur 10 Sur 0 1013.8 -0.7 86
2019-09-28 07:00:00 13.1 5 Sur 12 Sur 0 1013.9 -0.9 87
2019-09-28 06:00:00 13.3 8 Sur 11 Sur 0 1014.3 -0.5 88
2019-09-28 05:00:00 13.5 3 Sudeste 8 Sur 0 1014.5 -0.5 88
2019-09-28 04:00:00 13.9 2 Sur 9 Sur 0 1014.8 -0.5 87
2019-09-28 03:00:00 14.5 3 Sudeste 8 Sur 0 1014.8 -0.5 86
2019-09-28 02:00:00 15.5 2 Sudeste 14 Sudoeste 0 1015 0 83
2019-09-28 01:00:00 15.9 9 Sudoeste 14 Sudoeste 0 1015.3 0.3 83
2019-09-28 00:00:00 16.2 9 Sudoeste 17 Oeste 0 1015.3 0.7 80
2019-09-27 23:00:00 16.6 12 Sudoeste 17 Sudoeste 0 1015 0.5 78
2019-09-27 22:00:00 16.7 10 Sudoeste 17 Sudoeste 0 1015 0.7 77
2019-09-27 21:00:00 16.8 10 Sudoeste 23 Oeste 0 1014.6 0.5 77
2019-09-27 20:00:00 17.5 9 Oeste 24 Oeste 0 1014.5 0.6 74
2019-09-27 19:00:00 18.2 11 Oeste 24 Oeste 0 1014.3 0.5 73
2019-09-27 18:00:00 18.7 19 Oeste 26 Oeste 0 1014.1 0.4 73
2019-09-27 17:00:00 19.4 17 Oeste 34 Oeste 0 1013.9 -0.1 73
2019-09-27 16:00:00 21.1 18 Oeste 35 Oeste 0 1013.8 0 61
2019-09-27 15:00:00 20.2 14 Oeste 24 Oeste 0 1013.7 0.2 65
2019-09-27 14:00:00 19.8 13 Oeste 27 Sudoeste 0 1014 1.1 68
2019-09-27 13:00:00 18.9 19 Sudoeste 31 Sudoeste 0 1013.8 1.7 79
2019-09-27 12:00:00 17.4 15 Oeste 27 Oeste 0.4 1013.5 1.8 93
2019-09-27 11:00:00 16.8 16 Oeste 26 Oeste 1 1012.9 1.4 95
2019-09-27 10:00:00 17.3 8 Oeste 25 Oeste 1.6 1012.1 0.7 97
2019-09-27 09:00:00 18.2 5 Oeste 16 Sudoeste 1.4 1011.7 0.1 94
2019-09-27 08:00:00 18.3 10 Sudoeste 19 Oeste 0 1011.5 -0.1 92
2019-09-27 07:00:00 18.2 11 Sudoeste 22 Sudoeste 0.2 1011.4 -0.6 93
2019-09-27 06:00:00 18.3 10 Sudoeste 23 Sudoeste 0.4 1011.6 -0.2 94
2019-09-27 05:00:00 18.2 10 Sudoeste 19 Sudoeste 1.2 1011.6 -0.5 92
2019-09-27 04:00:00 18.4 9 Oeste 27 Sur 0.6 1012 -0.4 88
2019-09-27 03:00:00 19 11 Sur 22 Sudoeste 0 1011.8 -0.7 79
2019-09-27 02:00:00 19.1 12 Sur 27 Sudoeste 0 1012.1 -0.4 79
2019-09-27 01:00:00 19.3 12 Sudoeste 28 Sudoeste 0 1012.4 0.1 78
2019-09-27 00:00:00 19.3 14 Sudoeste 27 Sudoeste 0 1012.5 0.6 77
2019-09-26 23:00:00 19.4 14 Sudoeste 35 Sudoeste 0 1012.5 0.6 74
2019-09-26 22:00:00 19.4 17 Sudoeste 30 Sudoeste 0 1012.3 0.4 72
2019-09-26 21:00:00 19.7 15 Sudoeste 32 Sudoeste 0 1011.9 0.1 69
2019-09-26 20:00:00 20.3 17 Sudoeste 35 Sudoeste 0 1011.9 0.4 67
2019-09-26 19:00:00 20.9 24 Sudoeste 38 Sudoeste 0 1011.9 0.2 62
2019-09-26 18:00:00 21.8 22 Sudoeste 42 Sudoeste 0 1011.8 0.2 57
2019-09-26 17:00:00 22.9 17 Sudoeste 45 Sudoeste 0 1011.5 -0.5 52
2019-09-26 16:00:00 23.2 23 Sudoeste 41 Sudoeste 0 1011.7 -0.3 52
2019-09-26 15:00:00 23 17 Oeste 39 Sudoeste 0 1011.6 -0.8 55
2019-09-26 14:00:00 22.7 15 Sudoeste 39 Sudoeste 0 1012 -0.2 55
2019-09-26 13:00:00 22.3 23 Sudoeste 41 Sudoeste 0 1012 0.2 54
2019-09-26 12:00:00 21 13 Sudoeste 32 Sudoeste 0 1012.4 1.1 60
2019-09-26 11:00:00 19.5 17 Sudoeste 30 Sudoeste 0 1012.2 1 67
2019-09-26 10:00:00 18.2 11 Sur 22 Sur 0 1011.8 0.7 77
2019-09-26 09:00:00 17.7 9 Sur 18 Sur 0 1011.3 0 75
2019-09-26 08:00:00 17.5 9 Sur 16 Sur 0 1011.2 -0.3 80
2019-09-26 07:00:00 17.8 6 Sur 17 Sur 0 1011.1 -0.6 75
2019-09-26 06:00:00 17.8 9 Sur 23 Sudoeste 0 1011.3 -0.6 76
2019-09-26 05:00:00 17.5 9 Sur 20 Sudoeste 0 1011.5 -0.5 79
2019-09-26 04:00:00 17.1 9 Sur 17 Sur 0 1011.7 -0.7 81
2019-09-26 03:00:00 17.2 8 Sur 18 Sur 0 1011.9 -0.7 80
2019-09-26 02:00:00 17.5 13 Sur 21 Sur 0 1012 -0.5 78
2019-09-26 01:00:00 17.2 9 Sur 18 Sudeste 0 1012.4 0.3 79
2019-09-26 00:00:00 17.6 9 Sur 21 Sudoeste 0 1012.6 0.8 78
2019-09-25 23:00:00 17.8 10 Sudoeste 21 Sudoeste 0 1012.5 0.8 76
2019-09-25 22:00:00 18.2 12 Sudoeste 29 Sudoeste 0 1012.1 0.5 75
2019-09-25 21:00:00 18.6 16 Sudoeste 29 Sur 0 1011.8 0.1 72
2019-09-25 20:00:00 18.7 14 Oeste 24 Oeste 0 1011.7 0 72
2019-09-25 19:00:00 19.7 16 Oeste 27 Sudoeste 0 1011.6 -0.1 70
2019-09-25 18:00:00 19.3 15 Oeste 30 Oeste 0 1011.7 -0.4 74
2019-09-25 17:00:00 19.7 15 Oeste 32 Oeste 0 1011.7 -0.9 70
2019-09-25 16:00:00 20.6 18 Oeste 35 Oeste 0 1011.7 -1.2 66
2019-09-25 15:00:00 21.2 16 Oeste 29 Oeste 0 1012.1 -0.9 63
2019-09-25 14:00:00 21.4 15 Oeste 30 Sudoeste 0 1012.6 -0.3 62
2019-09-25 13:00:00 20.4 13 Sudoeste 31 Sudoeste 0 1012.9 0.5 67
2019-09-25 12:00:00 19.3 17 Sudoeste 37 Sudoeste 0 1013 1 71
2019-09-25 11:00:00 18.4 12 Sudoeste 26 Sudoeste 0 1012.9 1.2 77
2019-09-25 10:00:00 17 10 Sudoeste 26 Sudoeste 0 1012.4 0.7 82
2019-09-25 09:00:00 16.1 13 Sudoeste 22 Sur 0 1012 0.3 85
2019-09-25 08:00:00 16 9 Sudoeste 20 Sur 0 1011.7 0 87
2019-09-25 07:00:00 16.3 14 Sudoeste 25 Sudoeste 0 1011.7 -0.4 85
2019-09-25 06:00:00 16 10 Sudoeste 18 Sur 0 1011.7 -0.5 85
2019-09-25 05:00:00 16.1 10 Sudoeste 22 Sudoeste 0 1011.7 -0.5 86
2019-09-25 04:00:00 16.1 14 Sudoeste 33 Sudoeste 0.2 1012.1 -0.2 88
2019-09-25 03:00:00 16.4 16 Sudoeste 30 Sudoeste 0 1012.2 -0.3 85
2019-09-25 02:00:00 16.4 14 Sudoeste 27 Sudoeste 0 1012.2 0 85
2019-09-25 01:00:00 16.5 10 Sudoeste 28 Sudoeste 0 1012.3 0.2 85
2019-09-25 00:00:00 16.4 15 Sudoeste 29 Oeste 0.2 1012.5 0.9 85
2019-09-24 23:00:00 17.2 13 Sudoeste 33 Sudoeste 0 1012.2 0.8 79
2019-09-24 22:00:00 17.5 14 Sudoeste 36 Sudoeste 0 1012.1 1.1 76
2019-09-24 21:00:00 17.8 18 Sudoeste 29 Sudoeste 0 1011.6 1.1 72
2019-09-24 20:00:00 18.1 17 Sudoeste 38 Oeste 0 1011.4 0.9 71
2019-09-24 19:00:00 19 18 Oeste 41 Sudoeste 0 1011 0.4 69
2019-09-24 18:00:00 19.9 17 Oeste 35 Sudoeste 0 1010.5 -0.1 62
2019-09-24 17:00:00 20.3 24 Oeste 42 Oeste 0 1010.5 0.4 58
2019-09-24 16:00:00 20.1 16 Oeste 38 Sudoeste 0 1010.6 0.5 66
2019-09-24 15:00:00 19.7 19 Oeste 49 Oeste 0 1010.6 0.8 72
2019-09-24 14:00:00 20.6 26 Oeste 40 Oeste 0 1010.1 0.8 64
2019-09-24 13:00:00 19.4 15 Oeste 36 Sudoeste 0 1010.1 1.6 77
2019-09-24 12:00:00 19.8 14 Oeste 37 Sudoeste 0 1009.8 1.7 75
2019-09-24 11:00:00 19.3 14 Sudoeste 31 Sudoeste 0 1009.3 1.7 78
2019-09-24 10:00:00 19 18 Sudoeste 32 Sudoeste 0 1008.5 1.3 80
2019-09-24 09:00:00 17.9 17 Sudoeste 31 Sudoeste 0 1008.1 1.6 85
2019-09-24 08:00:00 18.2 17 Sudoeste 34 Oeste 0 1007.6 1.5 85
2019-09-24 07:00:00 18.6 20 Sudoeste 38 Sudoeste 0.6 1007.2 1.2 90
2019-09-24 06:00:00 19.4 11 Sudoeste 30 Oeste 0.2 1006.5 0.9 91
2019-09-24 05:00:00 19.4 18 Sudoeste 38 Sudoeste 0.2 1006.1 1.1 90
2019-09-24 04:00:00 19.1 22 Sudoeste 39 Sudoeste 2.6 1006 0.6 92
2019-09-24 03:00:00 19.5 16 Sudoeste 42 Sur 1.4 1005.6 -0.4 89
2019-09-24 02:00:00 19.8 22 Sur 42 Sur 0.4 1005 -1.1 83
2019-09-24 01:00:00 19.9 15 Sur 43 Sur 0.2 1005.4 -1.1 83
2019-09-24 00:00:00 19.6 18 Sur 53 Sur 0 1006 -0.6 81
2019-09-23 23:00:00 19.3 23 Sur 49 Sur 0 1006.1 -0.8 80
2019-09-23 22:00:00 19.2 24 Sur 56 Sur 0 1006.5 -0.3 79
2019-09-23 21:00:00 19.2 27 Sur 59 Sur 0 1006.6 -0.5 79
2019-09-23 20:00:00 19.7 23 Sur 57 Sur 0 1006.9 -0.2 77
2019-09-23 19:00:00 19.5 22 Sur 62 Sur 0 1006.8 -0.2 77
2019-09-23 18:00:00 19.4 23 Sur 66 Sur 0 1007.1 -0.5 76
2019-09-23 17:00:00 18.8 25 Sur 64 Sur 0 1007.1 -0.8 77
2019-09-23 16:00:00 18.6 21 Sur 50 Sur 0.4 1007 -1.7 80
2019-09-23 15:00:00 19.1 29 Sur 65 Sur 0.2 1007.6 -1.2 77
2019-09-23 14:00:00 19.3 25 Sur 67 Sur 0 1007.9 -1.1 73
2019-09-23 13:00:00 19 17 Sudoeste 40 Sudoeste 0.2 1008.7 -0.1 76
2019-09-23 12:00:00 18.9 12 Sur 35 Sur 0.2 1008.8 -0.2 76
2019-09-23 11:00:00 18.5 16 Sur 42 Sur 0 1009 0.4 73
2019-09-23 10:00:00 18.2 17 Sur 38 Sur 0 1008.8 0.4 74
2019-09-23 09:00:00 17.7 16 Sur 34 Sur 0 1009 0.1 76
2019-09-23 08:00:00 17.5 15 Sur 35 Sur 0 1008.6 -1 77
2019-09-23 07:00:00 17.3 14 Sur 36 Sur 0 1008.4 -1.4 77
2019-09-23 06:00:00 17.2 9 Sur 22 Sur 0 1008.9 -1.1 79
2019-09-23 05:00:00 17.3 10 Sur 24 Sur 0 1009.6 -0.2 76
2019-09-23 04:00:00 17 10 Sur 23 Sur 0 1009.8 0.2 76
2019-09-23 03:00:00 17 12 Sur 24 Sur 0 1010 0.3 75
2019-09-23 02:00:00 17.1 11 Sur 29 Sur 0 1009.8 0 73
2019-09-23 01:00:00 16.9 9 Sur 21 Sur 0 1009.6 0.1 74
2019-09-23 00:00:00 17 7 Sur 21 Sur 0 1009.7 0.6 74
2019-09-22 23:00:00 17.6 11 Sudoeste 23 Sudoeste 0 1009.8 1.2 73
2019-09-22 22:00:00 18.1 14 Sudoeste 28 Sudoeste 0 1009.5 1.5 70
2019-09-22 21:00:00 18.8 13 Sudoeste 32 Sudoeste 0 1009.1 1.5 66
2019-09-22 20:00:00 19.6 15 Sudoeste 32 Oeste 0 1008.6 1.2 61
2019-09-22 19:00:00 20.6 17 Sudoeste 36 Sudoeste 0 1008 0.9 55
2019-09-22 18:00:00 20.6 15 Oeste 37 Sudoeste 0 1007.6 0.6 61
2019-09-22 17:00:00 21.8 19 Sudoeste 42 Sudoeste 0 1007.4 0.5 55
2019-09-22 16:00:00 20.6 16 Oeste 36 Oeste 0 1007.1 0.4 63
2019-09-22 15:00:00 20.6 16 Oeste 31 Oeste 0 1007 0.8 61
2019-09-22 14:00:00 21.2 15 Oeste 35 Oeste 0 1006.9 1.3 59
2019-09-22 13:00:00 21.2 16 Oeste 37 Sudoeste 0 1006.7 1.8 57
2019-09-22 12:00:00 20.7 16 Sudoeste 43 Sudoeste 0 1006.2 2 61
2019-09-22 11:00:00 19.3 18 Sudoeste 36 Sudoeste 0 1005.6 2.1 67
2019-09-22 10:00:00 17.6 17 Sudoeste 29 Sudoeste 0 1004.9 2 75
2019-09-22 09:00:00 16.4 17 Sudoeste 30 Sudoeste 0 1004.2 2 80
2019-09-22 08:00:00 16.3 18 Sudoeste 38 Sudoeste 0 1003.5 1.7 79
2019-09-22 07:00:00 16.4 18 Sudoeste 36 Sur 0 1002.9 1.3 79
2019-09-22 06:00:00 16.3 15 Sudoeste 41 Sudoeste 0 1002.2 0.9 78
2019-09-22 05:00:00 16.4 17 Sudoeste 42 Sudoeste 0 1001.8 1 73
2019-09-22 04:00:00 16.3 13 Sur 29 Sudoeste 0 1001.6 1.1 74
2019-09-22 03:00:00 16.3 15 Sudoeste 30 Sudoeste 0 1001.3 1.5 76
2019-09-22 02:00:00 16.8 17 Sudoeste 33 Sudoeste 0 1000.8 1.3 76
2019-09-22 01:00:00 17.5 18 Sudoeste 39 Sudoeste 0 1000.5 1.3 74
2019-09-22 00:00:00 17.9 21 Sudoeste 33 Sudoeste 0 999.8 1.3 76
2019-09-21 23:00:00 18.1 13 Sudoeste 32 Sudoeste 0 999.5 1.3 75
2019-09-21 22:00:00 18.6 13 Sudoeste 27 Sudoeste 0 999.2 1.4 71
2019-09-21 21:00:00 18.9 13 Sur 31 Sudoeste 0 998.5 1.3 69
2019-09-21 20:00:00 19.6 20 Sudoeste 41 Sudoeste 0 998.2 1.2 63
2019-09-21 19:00:00 20.5 22 Sudoeste 39 Sudoeste 0 997.8 0.3 59
2019-09-21 18:00:00 19.8 9 Oeste 28 Oeste 0 997.2 -0.2 73
2019-09-21 17:00:00 19.8 11 Oeste 31 Sudoeste 0 997 -0.4 79
2019-09-21 16:00:00 17.8 13 Oeste 45 Sur 0 997.5 0.1 85
2019-09-21 15:00:00 20.3 13 Sur 39 Sur 0 997.4 -0.1 79
2019-09-21 14:00:00 20.7 21 Sur 54 Sur 0 997.4 -0.6 74
2019-09-21 13:00:00 21.4 26 Sur 50 Sur 0 997.4 -0.4 73
2019-09-21 12:00:00 20.3 16 Sur 43 Sur 0 997.5 0.1 74
2019-09-21 11:00:00 20.1 17 Sur 37 Sudoeste 0 998 0.5 79
2019-09-21 10:00:00 19.7 11 Sur 26 Sur 0 997.8 0.2 79
2019-09-21 09:00:00 19 9 Sudeste 33 Sur 0 997.4 -1 79
2019-09-21 08:00:00 18.5 14 Sudeste 32 Sur 0.4 997.5 -1.6 82
2019-09-21 07:00:00 19.3 15 Sur 28 Sur 0 997.6 -2.2 76
2019-09-21 06:00:00 19.2 17 Sur 26 Sudeste 0 998.4 -2.8 74
2019-09-21 05:00:00 18.8 11 Sur 26 Sur 0 999.1 -2.4 75
2019-09-21 04:00:00 18.4 9 Sudeste 27 Sur 0 999.8 -1.9 77
2019-09-21 03:00:00 17.8 9 Sur 19 Sur 0 1001.2 -1 82
2019-09-21 02:00:00 17.2 5 Sudeste 8 Sudeste 0 1001.5 -1.3 87
2019-09-21 01:00:00 17.4 4 Este 10 Sur 0 1001.7 -1.5 86
2019-09-21 00:00:00 17.9 7 Sudeste 16 Sudeste 0 1002.2 -1 82
2019-09-20 23:00:00 18.7 8 Sudeste 15 Sur 0 1002.8 -0.7 79
2019-09-20 22:00:00 18.8 10 Sur 19 Sur 0 1003.2 -0.3 79
2019-09-20 21:00:00 17.8 5 Sudoeste 9 Nordeste 0 1003.2 0.1 85
2019-09-20 20:00:00 18 5 Nordeste 8 Nordeste 0 1003.5 0.1 84
2019-09-20 19:00:00 18.8 6 Nordeste 10 Oeste 0 1003.5 -1 81
2019-09-20 18:00:00 18.3 6 Noroeste 13 Nordeste 0 1003.1 -1.6 84
2019-09-20 17:00:00 19.3 6 Nordeste 15 Noroeste 0 1003.4 -2 79
2019-09-20 16:00:00 19.5 9 Norte 14 Norte 0 1004.5 -1.2 78
2019-09-20 15:00:00 19.1 8 Norte 12 Norte 0 1004.7 -1.2 80
2019-09-20 14:00:00 17.8 6 Nordeste 12 Norte 0 1005.4 -0.7 85
2019-09-20 13:00:00 17.3 5 Norte 10 Norte 0 1005.7 0 89
2019-09-20 12:00:00 15.9 4 Norte 7 Norte 0 1005.9 0.3 95
2019-09-20 11:00:00 15.3 5 Norte 9 Noroeste 0 1006.1 0.1 97
2019-09-20 10:00:00 14.9 4 Nordeste 10 Este 0 1005.7 0 99
2019-09-20 09:00:00 14.6 3 Este 7 Este 0.2 1005.6 -0.5 99
2019-09-20 08:00:00 14.3 3 Sudeste 13 Sudeste 0.8 1006 -0.5 99
2019-09-20 07:00:00 14.2 6 Este 12 Este 0 1005.7 -1.5 99
2019-09-20 06:00:00 14.2 6 Este 10 Este 0 1006.1 -1.6 99
2019-09-20 05:00:00 14.1 4 Norte 8 Oeste 0 1006.5 -1.3 100
2019-09-20 04:00:00 14 6 Oeste 12 Oeste 0 1007.2 -1 100
2019-09-20 03:00:00 14.1 3 Oeste 8 Nordeste 0 1007.7 -0.7 99
2019-09-20 02:00:00 14.1 4 Norte 6 Nordeste 0 1007.8 -0.7 99
2019-09-20 01:00:00 14.1 3 Oeste 8 Oeste 0 1008.2 0 98
2019-09-20 00:00:00 14.4 4 Oeste 9 Oeste 0 1008.4 0.7 96
2019-09-19 23:00:00 14.8 9 Oeste 17 Oeste 0 1008.5 0.8 94
2019-09-19 22:00:00 15.9 11 Oeste 18 Oeste 0 1008.2 0.6 90
2019-09-19 21:00:00 17.1 5 Oeste 17 Oeste 0 1007.7 0.2 85
2019-09-19 20:00:00 17.6 9 Oeste 23 Oeste 0 1007.7 -0.1 83
2019-09-19 19:00:00 17.9 10 Oeste 22 Oeste 0 1007.6 -0.5 81
2019-09-19 18:00:00 19.4 10 Oeste 25 Oeste 0 1007.5 -1.2 74
2019-09-19 17:00:00 20.5 15 Oeste 23 Oeste 0 1007.8 -1.4 70
2019-09-19 16:00:00 20.7 8 Oeste 19 Oeste 0 1008.1 -1.6 69
2019-09-19 15:00:00 22.9 11 Noroeste 19 Oeste 0 1008.7 -1.2 63
2019-09-19 14:00:00 24.4 6 Norte 12 Norte 0 1009.2 -0.7 60
2019-09-19 13:00:00 24.1 5 Nordeste 10 Este 0 1009.7 -0.1 62
2019-09-19 12:00:00 23 5 Nordeste 10 Este 0 1009.9 0.3 66
2019-09-19 11:00:00 21.1 8 Este 10 Este 0 1009.9 0.6 72
2019-09-19 10:00:00 19.4 5 Este 9 Este 0 1009.8 0.5 79
2019-09-19 09:00:00 17.7 4 Este 9 Este 0 1009.6 0.2 88
2019-09-19 08:00:00 17.3 5 Este 9 Este 0 1009.3 -0.2 89
2019-09-19 07:00:00 17.5 4 Sudeste 7 Sudeste 0 1009.3 -0.2 88
2019-09-19 06:00:00 17.6 4 Este 9 Este 0 1009.4 -0.5 88
2019-09-19 05:00:00 17.7 4 Este 11 Este 0 1009.5 -0.5 87
2019-09-19 04:00:00 18.1 8 Este 13 Este 0 1009.5 -0.5 85
2019-09-19 03:00:00 18.5 7 Este 12 Este 0 1009.9 -0.2 83
2019-09-19 02:00:00 18.9 6 Nordeste 9 Este 0 1010 0 82
2019-09-19 01:00:00 19.3 5 Este 9 Este 0 1010 0.3 82
2019-09-19 00:00:00 19.8 6 Este 14 Este 0 1010.1 1 80
2019-09-18 23:00:00 20.1 5 Nordeste 11 Sudeste 0 1010 1.3 79
2019-09-18 22:00:00 20.2 8 Nordeste 16 Norte 0 1009.7 1.2 79
2019-09-18 21:00:00 21.3 5 Norte 9 Norte 0 1009.1 0.7 75
2019-09-18 20:00:00 22.1 4 Noroeste 11 Noroeste 0 1008.7 0.1 72
2019-09-18 19:00:00 22.4 7 Noroeste 11 Noroeste 0 1008.5 -0.5 71
2019-09-18 18:00:00 22 6 Oeste 16 Noroeste 0 1008.4 -1.1 72
2019-09-18 17:00:00 22 10 Noroeste 18 Norte 0 1008.6 -0.9 72
2019-09-18 16:00:00 23.3 6 Noroeste 19 Noroeste 0 1009 -0.8 66
2019-09-18 15:00:00 23.1 7 Norte 15 Norte 0 1009.5 -0.2 66
2019-09-18 14:00:00 25.5 7 Nordeste 9 Nordeste 0 1009.5 0 61
2019-09-18 13:00:00 23.9 4 Nordeste 10 Nordeste 0 1009.8 0.5 66
2019-09-18 12:00:00 21.9 6 Nordeste 12 Este 0 1009.7 0.8 71
2019-09-18 11:00:00 19.6 5 Este 10 Este 0 1009.5 1.1 82
2019-09-18 10:00:00 18.7 5 Sudeste 10 Este 0 1009.3 1.3 85
2019-09-18 09:00:00 17.8 5 Este 10 Sudeste 0 1008.9 0.9 89
2019-09-18 08:00:00 18 9 Sudeste 14 Sur 0 1008.4 0.2 88
2019-09-18 07:00:00 18 4 Sudeste 11 Sudeste 0 1008 -0.2 91
2019-09-18 06:00:00 17.9 6 Sudeste 12 Sudeste 0 1008 -0.5 91
2019-09-18 05:00:00 18.4 7 Sudeste 12 Sudeste 0 1008.2 0.1 91
2019-09-18 04:00:00 18.9 5 Sudeste 12 Sudeste 0 1008.2 0.3 89
2019-09-18 03:00:00 19.1 5 Sudeste 8 Este 0 1008.5 0.1 88
2019-09-18 02:00:00 19.2 0 Calma 16 Norte 0 1008.1 -0.7 88
2019-09-18 01:00:00 20.4 3 Nordeste 15 Sudeste 0 1007.9 -0.5 83
2019-09-18 00:00:00 20.7 7 Sudeste 21 Sudeste 0 1008.4 0.7 83
2019-09-17 23:00:00 20 5 Este 12 Este 0 1008.8 1 86
2019-09-17 22:00:00 19.9 4 Nordeste 13 Sur 0 1008.4 0.2 83
2019-09-17 21:00:00 20.2 5 Sudeste 17 Este 0 1007.7 -0.4 86
2019-09-15 18:00:00 18.2 14 Norte 33 Noroeste 0 1011.4 -1.2 87
2019-09-15 17:00:00 19.3 19 Norte 33 Norte 0 1011.6 -1.6 84
2019-09-15 16:00:00 20.4 10 Norte 24 Noroeste 0 1012 -2 78
2019-09-15 15:00:00 20.8 12 Norte 23 Norte 0 1012.6 -1.7 76
2019-09-15 14:00:00 22 8 Norte 17 Norte 0 1013.2 -0.9 71
2019-09-15 13:00:00 22.3 5 Norte 12 Norte 0 1014 0.1 70
2019-09-15 12:00:00 21.6 4 Norte 7 Norte 0 1014.3 0.6 72
2019-09-15 11:00:00 20.9 4 Nordeste 7 Nordeste 0 1014.1 0.6 74
2019-09-15 10:00:00 19 3 Nordeste 5 Sur 0 1013.9 0.5 86
2019-09-15 09:00:00 16.8 3 Sudeste 6 Sudeste 0 1013.7 0.4 94
2019-09-15 08:00:00 16.5 2 Sudoeste 6 Sudeste 0 1013.5 0 92
2019-09-15 07:00:00 16.6 0 Calma 4 Sudeste 0 1013.4 -0.3 91
2019-09-15 06:00:00 16.6 0 Calma 3 Noroeste 0 1013.3 -0.6 92
2019-09-15 05:00:00 16.8 0 Calma 4 Este 0 1013.5 -0.5 90
2019-09-15 04:00:00 17.3 0 Calma 5 Noroeste 0 1013.7 -0.5 90
2019-09-15 03:00:00 17.2 4 Oeste 5 Oeste 0 1013.9 -0.5 89
2019-09-15 02:00:00 17.3 3 Norte 12 Norte 0 1014 -0.7 89
2019-09-15 01:00:00 17.3 8 Norte 14 Norte 0 1014.2 -0.3 90
2019-09-15 00:00:00 17.7 9 Norte 15 Norte 0 1014.4 -0.1 88